sensor_id;sensor_type;location;lat;lon;timestamp;P1;durP1;ratioP1;P2;durP2;ratioP2
49422;SDS011;36998;51.974;20.150;2022-07-09T00:00:20;7.82;;;4.78;;
49422;SDS011;36998;51.974;20.150;2022-07-09T00:02:46;14.48;;;4.28;;
49422;SDS011;36998;51.974;20.150;2022-07-09T00:05:11;9.43;;;3.53;;
49422;SDS011;36998;51.974;20.150;2022-07-09T00:07:38;5.82;;;3.88;;
49422;SDS011;36998;51.974;20.150;2022-07-09T00:10:04;6.72;;;3.63;;
49422;SDS011;36998;51.974;20.150;2022-07-09T00:12:29;9.70;;;4.13;;
49422;SDS011;36998;51.974;20.150;2022-07-09T00:14:55;11.30;;;4.53;;
49422;SDS011;36998;51.974;20.150;2022-07-09T00:17:20;14.68;;;4.85;;
49422;SDS011;36998;51.974;20.150;2022-07-09T00:19:46;9.48;;;4.50;;
49422;SDS011;36998;51.974;20.150;2022-07-09T00:22:11;11.48;;;4.40;;
49422;SDS011;36998;51.974;20.150;2022-07-09T00:24:37;12.73;;;5.00;;
49422;SDS011;36998;51.974;20.150;2022-07-09T00:27:02;16.88;;;5.35;;
49422;SDS011;36998;51.974;20.150;2022-07-09T00:29:28;9.02;;;4.93;;
49422;SDS011;36998;51.974;20.150;2022-07-09T00:31:53;10.02;;;4.53;;
49422;SDS011;36998;51.974;20.150;2022-07-09T00:34:19;11.68;;;4.68;;
49422;SDS011;36998;51.974;20.150;2022-07-09T00:36:44;11.85;;;4.75;;
49422;SDS011;36998;51.974;20.150;2022-07-09T00:39:10;11.23;;;5.03;;
49422;SDS011;36998;51.974;20.150;2022-07-09T00:41:35;14.57;;;5.38;;
49422;SDS011;36998;51.974;20.150;2022-07-09T00:44:00;10.15;;;4.57;;
49422;SDS011;36998;51.974;20.150;2022-07-09T00:46:26;12.95;;;5.38;;
49422;SDS011;36998;51.974;20.150;2022-07-09T00:48:51;10.40;;;5.80;;
49422;SDS011;36998;51.974;20.150;2022-07-09T00:51:17;11.20;;;5.75;;
49422;SDS011;36998;51.974;20.150;2022-07-09T00:53:44;14.98;;;5.70;;
49422;SDS011;36998;51.974;20.150;2022-07-09T00:56:10;15.38;;;5.85;;
49422;SDS011;36998;51.974;20.150;2022-07-09T00:58:37;14.07;;;6.07;;
49422;SDS011;36998;51.974;20.150;2022-07-09T01:01:03;16.45;;;6.85;;
49422;SDS011;36998;51.974;20.150;2022-07-09T01:03:28;13.30;;;6.07;;
49422;SDS011;36998;51.974;20.150;2022-07-09T01:05:54;14.13;;;7.00;;
49422;SDS011;36998;51.974;20.150;2022-07-09T01:08:21;13.63;;;8.02;;
49422;SDS011;36998;51.974;20.150;2022-07-09T01:10:47;16.75;;;7.50;;
49422;SDS011;36998;51.974;20.150;2022-07-09T01:13:15;18.38;;;6.70;;
49422;SDS011;36998;51.974;20.150;2022-07-09T01:15:41;15.10;;;8.25;;
49422;SDS011;36998;51.974;20.150;2022-07-09T01:18:10;22.40;;;8.23;;
49422;SDS011;36998;51.974;20.150;2022-07-09T01:20:36;21.85;;;8.48;;
49422;SDS011;36998;51.974;20.150;2022-07-09T01:23:02;22.83;;;8.70;;
49422;SDS011;36998;51.974;20.150;2022-07-09T01:25:35;29.73;;;9.18;;
49422;SDS011;36998;51.974;20.150;2022-07-09T01:28:02;14.00;;;7.72;;
49422;SDS011;36998;51.974;20.150;2022-07-09T01:30:31;18.65;;;7.97;;
49422;SDS011;36998;51.974;20.150;2022-07-09T01:32:57;17.38;;;8.52;;
49422;SDS011;36998;51.974;20.150;2022-07-09T01:35:22;28.38;;;10.73;;
49422;SDS011;36998;51.974;20.150;2022-07-09T01:37:48;15.73;;;8.32;;
49422;SDS011;36998;51.974;20.150;2022-07-09T01:40:13;21.30;;;8.43;;
49422;SDS011;36998;51.974;20.150;2022-07-09T01:42:39;13.32;;;7.03;;
49422;SDS011;36998;51.974;20.150;2022-07-09T01:45:05;20.33;;;7.00;;
49422;SDS011;36998;51.974;20.150;2022-07-09T01:47:31;18.92;;;7.00;;
49422;SDS011;36998;51.974;20.150;2022-07-09T01:49:56;17.73;;;7.43;;
49422;SDS011;36998;51.974;20.150;2022-07-09T01:52:22;17.58;;;7.05;;
49422;SDS011;36998;51.974;20.150;2022-07-09T01:54:47;16.73;;;7.57;;
49422;SDS011;36998;51.974;20.150;2022-07-09T01:57:13;18.88;;;8.40;;
49422;SDS011;36998;51.974;20.150;2022-07-09T01:59:38;20.48;;;8.23;;
49422;SDS011;36998;51.974;20.150;2022-07-09T02:02:04;17.23;;;7.28;;
49422;SDS011;36998;51.974;20.150;2022-07-09T02:04:30;14.50;;;6.85;;
49422;SDS011;36998;51.974;20.150;2022-07-09T02:06:56;16.20;;;8.02;;
49422;SDS011;36998;51.974;20.150;2022-07-09T02:09:21;17.67;;;7.82;;
49422;SDS011;36998;51.974;20.150;2022-07-09T02:11:47;23.50;;;8.05;;
49422;SDS011;36998;51.974;20.150;2022-07-09T02:14:13;17.38;;;8.48;;
49422;SDS011;36998;51.974;20.150;2022-07-09T02:16:39;17.77;;;8.38;;
49422;SDS011;36998;51.974;20.150;2022-07-09T02:19:04;19.98;;;7.90;;
49422;SDS011;36998;51.974;20.150;2022-07-09T02:21:31;24.38;;;8.63;;
49422;SDS011;36998;51.974;20.150;2022-07-09T02:23:57;19.92;;;8.52;;
49422;SDS011;36998;51.974;20.150;2022-07-09T02:26:27;17.98;;;8.18;;
49422;SDS011;36998;51.974;20.150;2022-07-09T02:28:56;23.52;;;8.48;;
49422;SDS011;36998;51.974;20.150;2022-07-09T02:31:22;18.75;;;8.55;;
49422;SDS011;36998;51.974;20.150;2022-07-09T02:33:47;17.38;;;8.50;;
49422;SDS011;36998;51.974;20.150;2022-07-09T02:36:13;17.73;;;7.65;;
49422;SDS011;36998;51.974;20.150;2022-07-09T02:38:38;22.17;;;8.63;;
49422;SDS011;36998;51.974;20.150;2022-07-09T02:41:04;21.67;;;9.52;;
49422;SDS011;36998;51.974;20.150;2022-07-09T02:43:29;23.33;;;9.20;;
49422;SDS011;36998;51.974;20.150;2022-07-09T02:45:55;19.70;;;9.25;;
49422;SDS011;36998;51.974;20.150;2022-07-09T02:48:21;17.77;;;9.35;;
49422;SDS011;36998;51.974;20.150;2022-07-09T02:50:47;22.27;;;8.98;;
49422;SDS011;36998;51.974;20.150;2022-07-09T02:53:13;19.95;;;8.98;;
49422;SDS011;36998;51.974;20.150;2022-07-09T02:55:39;19.45;;;8.07;;
49422;SDS011;36998;51.974;20.150;2022-07-09T02:58:04;20.80;;;8.05;;
49422;SDS011;36998;51.974;20.150;2022-07-09T03:00:30;13.80;;;8.23;;
49422;SDS011;36998;51.974;20.150;2022-07-09T03:02:55;20.00;;;7.70;;
49422;SDS011;36998;51.974;20.150;2022-07-09T03:05:21;15.82;;;6.97;;
49422;SDS011;36998;51.974;20.150;2022-07-09T03:07:46;17.27;;;6.90;;
49422;SDS011;36998;51.974;20.150;2022-07-09T03:10:12;22.83;;;7.15;;
49422;SDS011;36998;51.974;20.150;2022-07-09T03:12:37;14.68;;;7.15;;
49422;SDS011;36998;51.974;20.150;2022-07-09T03:15:03;14.38;;;5.75;;
49422;SDS011;36998;51.974;20.150;2022-07-09T03:17:28;12.02;;;5.43;;
49422;SDS011;36998;51.974;20.150;2022-07-09T03:19:54;13.73;;;5.55;;
49422;SDS011;36998;51.974;20.150;2022-07-09T03:22:20;16.17;;;5.63;;
49422;SDS011;36998;51.974;20.150;2022-07-09T03:24:45;11.55;;;5.63;;
49422;SDS011;36998;51.974;20.150;2022-07-09T03:27:11;12.32;;;5.82;;
49422;SDS011;36998;51.974;20.150;2022-07-09T03:29:36;14.85;;;5.22;;
49422;SDS011;36998;51.974;20.150;2022-07-09T03:32:02;10.73;;;6.07;;
49422;SDS011;36998;51.974;20.150;2022-07-09T03:34:29;11.15;;;5.00;;
49422;SDS011;36998;51.974;20.150;2022-07-09T03:36:54;9.98;;;4.93;;
49422;SDS011;36998;51.974;20.150;2022-07-09T03:39:20;7.32;;;4.97;;
49422;SDS011;36998;51.974;20.150;2022-07-09T03:41:45;12.82;;;4.53;;
49422;SDS011;36998;51.974;20.150;2022-07-09T03:44:11;10.10;;;4.47;;
49422;SDS011;36998;51.974;20.150;2022-07-09T03:46:36;15.07;;;5.50;;
49422;SDS011;36998;51.974;20.150;2022-07-09T03:49:02;14.50;;;5.25;;
49422;SDS011;36998;51.974;20.150;2022-07-09T03:51:27;8.13;;;4.38;;
49422;SDS011;36998;51.974;20.150;2022-07-09T03:53:53;14.38;;;5.20;;
49422;SDS011;36998;51.974;20.150;2022-07-09T03:56:19;11.15;;;5.13;;
49422;SDS011;36998;51.974;20.150;2022-07-09T03:58:45;12.90;;;4.63;;
49422;SDS011;36998;51.974;20.150;2022-07-09T04:01:11;10.30;;;4.60;;
49422;SDS011;36998;51.974;20.150;2022-07-09T04:03:36;12.35;;;5.10;;
49422;SDS011;36998;51.974;20.150;2022-07-09T04:06:02;9.07;;;4.35;;
49422;SDS011;36998;51.974;20.150;2022-07-09T04:08:28;11.38;;;5.30;;
49422;SDS011;36998;51.974;20.150;2022-07-09T04:10:54;7.57;;;4.85;;
49422;SDS011;36998;51.974;20.150;2022-07-09T04:13:19;8.93;;;4.18;;
49422;SDS011;36998;51.974;20.150;2022-07-09T04:15:45;11.63;;;4.43;;
49422;SDS011;36998;51.974;20.150;2022-07-09T04:18:11;9.18;;;3.70;;
49422;SDS011;36998;51.974;20.150;2022-07-09T04:20:36;13.65;;;3.45;;
49422;SDS011;36998;51.974;20.150;2022-07-09T04:23:02;8.40;;;3.58;;
49422;SDS011;36998;51.974;20.150;2022-07-09T04:25:27;10.98;;;3.25;;
49422;SDS011;36998;51.974;20.150;2022-07-09T04:27:53;8.05;;;3.65;;
49422;SDS011;36998;51.974;20.150;2022-07-09T04:30:18;10.18;;;4.47;;
49422;SDS011;36998;51.974;20.150;2022-07-09T04:32:44;11.02;;;3.80;;
49422;SDS011;36998;51.974;20.150;2022-07-09T04:35:09;7.05;;;3.60;;
49422;SDS011;36998;51.974;20.150;2022-07-09T04:37:34;6.63;;;2.90;;
49422;SDS011;36998;51.974;20.150;2022-07-09T04:40:00;6.75;;;3.47;;
49422;SDS011;36998;51.974;20.150;2022-07-09T04:42:25;11.32;;;4.03;;
49422;SDS011;36998;51.974;20.150;2022-07-09T04:44:51;8.40;;;5.35;;
49422;SDS011;36998;51.974;20.150;2022-07-09T04:47:16;9.00;;;3.67;;
49422;SDS011;36998;51.974;20.150;2022-07-09T04:49:42;8.13;;;3.92;;
49422;SDS011;36998;51.974;20.150;2022-07-09T04:52:07;8.32;;;3.80;;
49422;SDS011;36998;51.974;20.150;2022-07-09T04:54:33;8.25;;;4.10;;
49422;SDS011;36998;51.974;20.150;2022-07-09T04:56:58;8.00;;;3.80;;
49422;SDS011;36998;51.974;20.150;2022-07-09T04:59:24;10.07;;;3.70;;
49422;SDS011;36998;51.974;20.150;2022-07-09T05:01:49;7.07;;;3.60;;
49422;SDS011;36998;51.974;20.150;2022-07-09T05:04:15;7.00;;;3.20;;
49422;SDS011;36998;51.974;20.150;2022-07-09T05:06:41;8.73;;;3.78;;
49422;SDS011;36998;51.974;20.150;2022-07-09T05:09:07;6.60;;;3.33;;
49422;SDS011;36998;51.974;20.150;2022-07-09T05:11:32;14.15;;;3.40;;
49422;SDS011;36998;51.974;20.150;2022-07-09T05:13:58;8.30;;;3.63;;
49422;SDS011;36998;51.974;20.150;2022-07-09T05:16:24;4.93;;;2.72;;
49422;SDS011;36998;51.974;20.150;2022-07-09T05:18:50;9.18;;;3.72;;
49422;SDS011;36998;51.974;20.150;2022-07-09T05:21:15;5.05;;;3.28;;
49422;SDS011;36998;51.974;20.150;2022-07-09T05:23:40;5.78;;;2.67;;
49422;SDS011;36998;51.974;20.150;2022-07-09T05:26:06;4.40;;;2.65;;
49422;SDS011;36998;51.974;20.150;2022-07-09T05:28:31;4.85;;;2.60;;
49422;SDS011;36998;51.974;20.150;2022-07-09T05:30:57;5.05;;;2.85;;
49422;SDS011;36998;51.974;20.150;2022-07-09T05:33:23;4.55;;;2.67;;
49422;SDS011;36998;51.974;20.150;2022-07-09T05:35:49;4.75;;;2.60;;
49422;SDS011;36998;51.974;20.150;2022-07-09T05:38:14;7.82;;;2.78;;
49422;SDS011;36998;51.974;20.150;2022-07-09T05:40:40;4.20;;;2.08;;
49422;SDS011;36998;51.974;20.150;2022-07-09T05:43:05;3.63;;;2.20;;
49422;SDS011;36998;51.974;20.150;2022-07-09T05:45:30;4.22;;;2.45;;
49422;SDS011;36998;51.974;20.150;2022-07-09T05:47:56;4.82;;;2.45;;
49422;SDS011;36998;51.974;20.150;2022-07-09T05:50:21;4.75;;;2.13;;
49422;SDS011;36998;51.974;20.150;2022-07-09T05:52:47;5.43;;;2.05;;
49422;SDS011;36998;51.974;20.150;2022-07-09T05:55:13;3.53;;;1.95;;
49422;SDS011;36998;51.974;20.150;2022-07-09T05:57:40;2.85;;;1.63;;
49422;SDS011;36998;51.974;20.150;2022-07-09T06:00:05;1.80;;;1.45;;
49422;SDS011;36998;51.974;20.150;2022-07-09T06:02:32;1.80;;;1.70;;
49422;SDS011;36998;51.974;20.150;2022-07-09T06:04:58;7.50;;;3.42;;
49422;SDS011;36998;51.974;20.150;2022-07-09T06:07:23;3.28;;;2.15;;
49422;SDS011;36998;51.974;20.150;2022-07-09T06:09:48;3.42;;;2.22;;
49422;SDS011;36998;51.974;20.150;2022-07-09T06:12:14;4.40;;;1.60;;
49422;SDS011;36998;51.974;20.150;2022-07-09T06:14:39;1.70;;;1.60;;
49422;SDS011;36998;51.974;20.150;2022-07-09T06:17:05;4.28;;;1.80;;
49422;SDS011;36998;51.974;20.150;2022-07-09T06:19:32;2.83;;;1.55;;
49422;SDS011;36998;51.974;20.150;2022-07-09T06:21:58;2.72;;;1.85;;
49422;SDS011;36998;51.974;20.150;2022-07-09T06:24:24;7.15;;;2.00;;
49422;SDS011;36998;51.974;20.150;2022-07-09T06:26:50;1.88;;;1.27;;
49422;SDS011;36998;51.974;20.150;2022-07-09T06:29:15;14.13;;;7.03;;
49422;SDS011;36998;51.974;20.150;2022-07-09T06:31:41;3.55;;;1.75;;
49422;SDS011;36998;51.974;20.150;2022-07-09T06:34:07;3.63;;;1.45;;
49422;SDS011;36998;51.974;20.150;2022-07-09T06:36:32;2.50;;;1.35;;
49422;SDS011;36998;51.974;20.150;2022-07-09T06:38:58;5.78;;;1.67;;
49422;SDS011;36998;51.974;20.150;2022-07-09T06:41:42;6.15;;;1.67;;
49422;SDS011;36998;51.974;20.150;2022-07-09T06:44:07;5.55;;;1.95;;
49422;SDS011;36998;51.974;20.150;2022-07-09T06:46:33;3.25;;;1.33;;
49422;SDS011;36998;51.974;20.150;2022-07-09T06:48:58;6.70;;;1.90;;
49422;SDS011;36998;51.974;20.150;2022-07-09T06:51:24;11.15;;;5.65;;
49422;SDS011;36998;51.974;20.150;2022-07-09T06:53:49;5.63;;;1.80;;
49422;SDS011;36998;51.974;20.150;2022-07-09T06:56:14;5.60;;;1.70;;
49422;SDS011;36998;51.974;20.150;2022-07-09T06:58:40;8.40;;;1.88;;
49422;SDS011;36998;51.974;20.150;2022-07-09T07:01:05;5.20;;;1.60;;
49422;SDS011;36998;51.974;20.150;2022-07-09T07:03:31;2.70;;;1.48;;
49422;SDS011;36998;51.974;20.150;2022-07-09T07:05:57;6.72;;;2.03;;
49422;SDS011;36998;51.974;20.150;2022-07-09T07:08:22;4.18;;;1.60;;
49422;SDS011;36998;51.974;20.150;2022-07-09T07:10:47;4.45;;;1.20;;
49422;SDS011;36998;51.974;20.150;2022-07-09T07:13:13;2.08;;;1.27;;
49422;SDS011;36998;51.974;20.150;2022-07-09T07:15:38;4.30;;;1.17;;
49422;SDS011;36998;51.974;20.150;2022-07-09T07:18:04;4.60;;;1.00;;
49422;SDS011;36998;51.974;20.150;2022-07-09T07:20:29;6.97;;;1.65;;
49422;SDS011;36998;51.974;20.150;2022-07-09T07:22:55;4.05;;;1.15;;
49422;SDS011;36998;51.974;20.150;2022-07-09T07:25:20;2.08;;;0.80;;
49422;SDS011;36998;51.974;20.150;2022-07-09T07:27:46;1.23;;;1.00;;
49422;SDS011;36998;51.974;20.150;2022-07-09T07:30:12;5.25;;;1.60;;
49422;SDS011;36998;51.974;20.150;2022-07-09T07:32:37;3.05;;;1.77;;
49422;SDS011;36998;51.974;20.150;2022-07-09T07:35:04;2.85;;;1.38;;
49422;SDS011;36998;51.974;20.150;2022-07-09T07:37:29;5.97;;;1.52;;
49422;SDS011;36998;51.974;20.150;2022-07-09T07:39:56;2.92;;;1.00;;
49422;SDS011;36998;51.974;20.150;2022-07-09T07:42:22;2.88;;;1.17;;
49422;SDS011;36998;51.974;20.150;2022-07-09T07:44:48;3.53;;;1.73;;
49422;SDS011;36998;51.974;20.150;2022-07-09T07:47:13;4.60;;;1.58;;
49422;SDS011;36998;51.974;20.150;2022-07-09T07:49:39;1.83;;;0.70;;
49422;SDS011;36998;51.974;20.150;2022-07-09T07:52:04;2.55;;;1.02;;
49422;SDS011;36998;51.974;20.150;2022-07-09T07:54:30;3.35;;;0.85;;
49422;SDS011;36998;51.974;20.150;2022-07-09T07:56:55;2.10;;;1.10;;
49422;SDS011;36998;51.974;20.150;2022-07-09T07:59:21;4.53;;;1.17;;
49422;SDS011;36998;51.974;20.150;2022-07-09T08:01:46;8.68;;;1.15;;
49422;SDS011;36998;51.974;20.150;2022-07-09T08:04:12;5.80;;;1.40;;
49422;SDS011;36998;51.974;20.150;2022-07-09T08:06:37;3.78;;;1.40;;
49422;SDS011;36998;51.974;20.150;2022-07-09T08:09:03;2.67;;;0.80;;
49422;SDS011;36998;51.974;20.150;2022-07-09T08:11:28;3.30;;;0.93;;
49422;SDS011;36998;51.974;20.150;2022-07-09T08:13:54;2.20;;;0.80;;
49422;SDS011;36998;51.974;20.150;2022-07-09T08:16:19;3.42;;;1.25;;
49422;SDS011;36998;51.974;20.150;2022-07-09T08:18:45;3.50;;;1.00;;
49422;SDS011;36998;51.974;20.150;2022-07-09T08:21:11;4.05;;;0.93;;
49422;SDS011;36998;51.974;20.150;2022-07-09T08:23:36;1.65;;;0.80;;
49422;SDS011;36998;51.974;20.150;2022-07-09T08:26:17;2.60;;;1.67;;
49422;SDS011;36998;51.974;20.150;2022-07-09T08:28:43;7.10;;;1.50;;
49422;SDS011;36998;51.974;20.150;2022-07-09T08:31:09;5.53;;;1.30;;
49422;SDS011;36998;51.974;20.150;2022-07-09T08:33:34;6.80;;;1.65;;
49422;SDS011;36998;51.974;20.150;2022-07-09T08:36:00;5.22;;;1.42;;
49422;SDS011;36998;51.974;20.150;2022-07-09T08:38:25;5.22;;;1.15;;
49422;SDS011;36998;51.974;20.150;2022-07-09T08:40:50;1.98;;;1.10;;
49422;SDS011;36998;51.974;20.150;2022-07-09T08:43:16;3.22;;;1.00;;
49422;SDS011;36998;51.974;20.150;2022-07-09T08:45:42;2.08;;;1.10;;
49422;SDS011;36998;51.974;20.150;2022-07-09T08:48:09;5.57;;;1.17;;
49422;SDS011;36998;51.974;20.150;2022-07-09T08:50:34;1.90;;;1.00;;
49422;SDS011;36998;51.974;20.150;2022-07-09T08:53:00;1.75;;;0.75;;
49422;SDS011;36998;51.974;20.150;2022-07-09T08:55:27;6.43;;;0.98;;
49422;SDS011;36998;51.974;20.150;2022-07-09T08:57:54;1.65;;;0.82;;
49422;SDS011;36998;51.974;20.150;2022-07-09T09:00:19;2.55;;;0.90;;
49422;SDS011;36998;51.974;20.150;2022-07-09T09:02:44;1.30;;;0.90;;
49422;SDS011;36998;51.974;20.150;2022-07-09T09:05:12;2.65;;;1.40;;
49422;SDS011;36998;51.974;20.150;2022-07-09T09:07:38;3.33;;;1.08;;
49422;SDS011;36998;51.974;20.150;2022-07-09T09:10:04;3.00;;;0.90;;
49422;SDS011;36998;51.974;20.150;2022-07-09T09:12:30;2.25;;;1.00;;
49422;SDS011;36998;51.974;20.150;2022-07-09T09:14:55;4.55;;;1.85;;
49422;SDS011;36998;51.974;20.150;2022-07-09T09:17:21;4.55;;;1.70;;
49422;SDS011;36998;51.974;20.150;2022-07-09T09:19:47;4.28;;;1.42;;
49422;SDS011;36998;51.974;20.150;2022-07-09T09:22:16;8.02;;;1.88;;
49422;SDS011;36998;51.974;20.150;2022-07-09T09:24:42;4.47;;;1.23;;
49422;SDS011;36998;51.974;20.150;2022-07-09T09:27:08;3.47;;;1.15;;
49422;SDS011;36998;51.974;20.150;2022-07-09T09:29:33;5.75;;;1.30;;
49422;SDS011;36998;51.974;20.150;2022-07-09T09:32:10;2.97;;;1.00;;
49422;SDS011;36998;51.974;20.150;2022-07-09T09:34:37;3.85;;;0.85;;
49422;SDS011;36998;51.974;20.150;2022-07-09T09:37:03;6.00;;;1.30;;
49422;SDS011;36998;51.974;20.150;2022-07-09T09:39:29;4.55;;;1.23;;
49422;SDS011;36998;51.974;20.150;2022-07-09T09:41:55;5.47;;;1.30;;
49422;SDS011;36998;51.974;20.150;2022-07-09T09:44:25;7.00;;;1.30;;
49422;SDS011;36998;51.974;20.150;2022-07-09T09:46:54;3.85;;;1.23;;
49422;SDS011;36998;51.974;20.150;2022-07-09T09:49:21;5.82;;;1.30;;
49422;SDS011;36998;51.974;20.150;2022-07-09T09:51:56;3.25;;;1.17;;
49422;SDS011;36998;51.974;20.150;2022-07-09T09:54:27;3.20;;;1.40;;
49422;SDS011;36998;51.974;20.150;2022-07-09T09:56:54;4.80;;;1.23;;
49422;SDS011;36998;51.974;20.150;2022-07-09T09:59:19;2.58;;;1.40;;
49422;SDS011;36998;51.974;20.150;2022-07-09T10:01:45;8.70;;;1.40;;
49422;SDS011;36998;51.974;20.150;2022-07-09T10:04:12;2.25;;;0.90;;
49422;SDS011;36998;51.974;20.150;2022-07-09T10:06:40;4.70;;;1.13;;
49422;SDS011;36998;51.974;20.150;2022-07-09T10:09:07;2.72;;;0.73;;
49422;SDS011;36998;51.974;20.150;2022-07-09T10:11:43;1.98;;;0.95;;
49422;SDS011;36998;51.974;20.150;2022-07-09T10:14:14;4.18;;;1.00;;
49422;SDS011;36998;51.974;20.150;2022-07-09T10:16:54;1.90;;;0.80;;
49422;SDS011;36998;51.974;20.150;2022-07-09T10:19:29;2.10;;;0.88;;
49422;SDS011;36998;51.974;20.150;2022-07-09T10:21:58;1.67;;;0.95;;
49422;SDS011;36998;51.974;20.150;2022-07-09T10:24:31;2.22;;;1.00;;
49422;SDS011;36998;51.974;20.150;2022-07-09T10:27:05;1.90;;;0.90;;
49422;SDS011;36998;51.974;20.150;2022-07-09T10:29:33;4.82;;;1.20;;
49422;SDS011;36998;51.974;20.150;2022-07-09T10:31:59;1.50;;;0.93;;
49422;SDS011;36998;51.974;20.150;2022-07-09T10:34:31;3.15;;;0.68;;
49422;SDS011;36998;51.974;20.150;2022-07-09T10:37:00;1.30;;;0.75;;
49422;SDS011;36998;51.974;20.150;2022-07-09T10:39:28;3.20;;;1.10;;
49422;SDS011;36998;51.974;20.150;2022-07-09T10:44:45;4.60;;;1.00;;
49422;SDS011;36998;51.974;20.150;2022-07-09T10:47:11;1.67;;;0.85;;
49422;SDS011;36998;51.974;20.150;2022-07-09T10:49:38;3.28;;;1.10;;
49422;SDS011;36998;51.974;20.150;2022-07-09T10:52:04;5.65;;;1.40;;
49422;SDS011;36998;51.974;20.150;2022-07-09T10:54:30;2.78;;;1.00;;
49422;SDS011;36998;51.974;20.150;2022-07-09T10:56:56;2.78;;;1.13;;
49422;SDS011;36998;51.974;20.150;2022-07-09T10:59:23;5.43;;;1.20;;
49422;SDS011;36998;51.974;20.150;2022-07-09T11:01:49;3.67;;;1.10;;
49422;SDS011;36998;51.974;20.150;2022-07-09T11:04:25;2.90;;;1.23;;
49422;SDS011;36998;51.974;20.150;2022-07-09T11:06:50;5.97;;;1.60;;
49422;SDS011;36998;51.974;20.150;2022-07-09T11:09:16;2.58;;;1.30;;
49422;SDS011;36998;51.974;20.150;2022-07-09T11:11:42;3.08;;;1.20;;
49422;SDS011;36998;51.974;20.150;2022-07-09T11:14:09;2.28;;;1.10;;
49422;SDS011;36998;51.974;20.150;2022-07-09T11:16:35;3.10;;;1.20;;
49422;SDS011;36998;51.974;20.150;2022-07-09T11:19:17;2.83;;;1.20;;
49422;SDS011;36998;51.974;20.150;2022-07-09T11:21:46;2.88;;;1.30;;
49422;SDS011;36998;51.974;20.150;2022-07-09T11:24:17;4.07;;;1.20;;
49422;SDS011;36998;51.974;20.150;2022-07-09T11:26:49;2.60;;;0.90;;
49422;SDS011;36998;51.974;20.150;2022-07-09T11:29:16;1.30;;;0.95;;
49422;SDS011;36998;51.974;20.150;2022-07-09T11:31:46;5.38;;;1.23;;
49422;SDS011;36998;51.974;20.150;2022-07-09T11:34:13;5.20;;;1.40;;
49422;SDS011;36998;51.974;20.150;2022-07-09T11:36:44;5.15;;;1.45;;
49422;SDS011;36998;51.974;20.150;2022-07-09T11:39:21;4.18;;;1.20;;
49422;SDS011;36998;51.974;20.150;2022-07-09T11:41:47;2.78;;;0.85;;
49422;SDS011;36998;51.974;20.150;2022-07-09T11:47:17;2.17;;;1.00;;
49422;SDS011;36998;51.974;20.150;2022-07-09T11:49:46;5.73;;;1.27;;
49422;SDS011;36998;51.974;20.150;2022-07-09T11:52:25;3.00;;;0.93;;
49422;SDS011;36998;51.974;20.150;2022-07-09T11:54:57;4.45;;;1.20;;
49422;SDS011;36998;51.974;20.150;2022-07-09T11:57:28;3.67;;;1.17;;
49422;SDS011;36998;51.974;20.150;2022-07-09T11:59:54;5.90;;;2.72;;
49422;SDS011;36998;51.974;20.150;2022-07-09T12:04:57;5.60;;;1.10;;
49422;SDS011;36998;51.974;20.150;2022-07-09T12:07:23;3.28;;;0.85;;
49422;SDS011;36998;51.974;20.150;2022-07-09T12:12:34;5.18;;;1.08;;
49422;SDS011;36998;51.974;20.150;2022-07-09T12:15:03;1.88;;;1.02;;
49422;SDS011;36998;51.974;20.150;2022-07-09T12:17:30;1.65;;;1.00;;
49422;SDS011;36998;51.974;20.150;2022-07-09T12:19:57;6.18;;;1.52;;
49422;SDS011;36998;51.974;20.150;2022-07-09T12:22:23;3.85;;;0.90;;
49422;SDS011;36998;51.974;20.150;2022-07-09T12:24:50;4.00;;;1.00;;
49422;SDS011;36998;51.974;20.150;2022-07-09T12:27:16;5.70;;;0.98;;
49422;SDS011;36998;51.974;20.150;2022-07-09T12:29:42;1.40;;;0.80;;
49422;SDS011;36998;51.974;20.150;2022-07-09T12:32:08;2.05;;;0.88;;
49422;SDS011;36998;51.974;20.150;2022-07-09T12:34:34;2.25;;;0.90;;
49422;SDS011;36998;51.974;20.150;2022-07-09T12:37:00;2.15;;;0.90;;
49422;SDS011;36998;51.974;20.150;2022-07-09T12:39:25;2.38;;;0.85;;
49422;SDS011;36998;51.974;20.150;2022-07-09T12:41:51;2.10;;;0.75;;
49422;SDS011;36998;51.974;20.150;2022-07-09T12:44:16;5.25;;;1.35;;
49422;SDS011;36998;51.974;20.150;2022-07-09T12:46:42;4.10;;;1.10;;
49422;SDS011;36998;51.974;20.150;2022-07-09T12:49:07;0.70;;;0.70;;
49422;SDS011;36998;51.974;20.150;2022-07-09T12:51:33;6.32;;;1.25;;
49422;SDS011;36998;51.974;20.150;2022-07-09T12:53:59;4.63;;;1.00;;
49422;SDS011;36998;51.974;20.150;2022-07-09T12:56:24;3.47;;;1.00;;
49422;SDS011;36998;51.974;20.150;2022-07-09T12:58:50;7.80;;;1.40;;
49422;SDS011;36998;51.974;20.150;2022-07-09T13:01:15;5.63;;;1.20;;
49422;SDS011;36998;51.974;20.150;2022-07-09T13:03:41;5.82;;;1.02;;
49422;SDS011;36998;51.974;20.150;2022-07-09T13:06:07;2.63;;;1.17;;
49422;SDS011;36998;51.974;20.150;2022-07-09T13:08:52;3.92;;;1.02;;
49422;SDS011;36998;51.974;20.150;2022-07-09T13:11:18;5.95;;;1.27;;
49422;SDS011;36998;51.974;20.150;2022-07-09T13:13:43;3.28;;;1.40;;
49422;SDS011;36998;51.974;20.150;2022-07-09T13:16:08;4.28;;;1.15;;
49422;SDS011;36998;51.974;20.150;2022-07-09T13:18:34;4.07;;;1.20;;
49422;SDS011;36998;51.974;20.150;2022-07-09T13:21:01;5.22;;;1.08;;
49422;SDS011;36998;51.974;20.150;2022-07-09T13:23:26;2.90;;;1.00;;
49422;SDS011;36998;51.974;20.150;2022-07-09T13:25:52;2.30;;;0.90;;
49422;SDS011;36998;51.974;20.150;2022-07-09T13:28:17;1.08;;;0.88;;
49422;SDS011;36998;51.974;20.150;2022-07-09T13:30:42;2.50;;;1.20;;
49422;SDS011;36998;51.974;20.150;2022-07-09T13:33:08;2.75;;;1.17;;
49422;SDS011;36998;51.974;20.150;2022-07-09T13:35:33;4.63;;;1.30;;
49422;SDS011;36998;51.974;20.150;2022-07-09T13:37:59;3.00;;;1.30;;
49422;SDS011;36998;51.974;20.150;2022-07-09T13:40:25;4.22;;;1.10;;
49422;SDS011;36998;51.974;20.150;2022-07-09T13:42:50;1.45;;;1.10;;
49422;SDS011;36998;51.974;20.150;2022-07-09T13:45:16;5.90;;;1.25;;
49422;SDS011;36998;51.974;20.150;2022-07-09T13:47:41;3.70;;;1.42;;
49422;SDS011;36998;51.974;20.150;2022-07-09T13:50:07;2.17;;;1.30;;
49422;SDS011;36998;51.974;20.150;2022-07-09T13:52:32;3.88;;;1.30;;
49422;SDS011;36998;51.974;20.150;2022-07-09T13:54:58;2.45;;;1.45;;
49422;SDS011;36998;51.974;20.150;2022-07-09T13:57:23;2.90;;;1.20;;
49422;SDS011;36998;51.974;20.150;2022-07-09T13:59:49;2.20;;;1.10;;
49422;SDS011;36998;51.974;20.150;2022-07-09T14:02:15;2.22;;;1.02;;
49422;SDS011;36998;51.974;20.150;2022-07-09T14:04:40;2.15;;;1.10;;
49422;SDS011;36998;51.974;20.150;2022-07-09T14:07:09;3.45;;;1.08;;
49422;SDS011;36998;51.974;20.150;2022-07-09T14:09:36;3.67;;;1.30;;
49422;SDS011;36998;51.974;20.150;2022-07-09T14:12:01;1.35;;;1.17;;
49422;SDS011;36998;51.974;20.150;2022-07-09T14:14:27;2.63;;;1.00;;
49422;SDS011;36998;51.974;20.150;2022-07-09T14:16:52;4.03;;;1.05;;
49422;SDS011;36998;51.974;20.150;2022-07-09T14:19:18;2.30;;;1.13;;
49422;SDS011;36998;51.974;20.150;2022-07-09T14:21:43;2.10;;;1.20;;
49422;SDS011;36998;51.974;20.150;2022-07-09T14:24:09;6.13;;;1.70;;
49422;SDS011;36998;51.974;20.150;2022-07-09T14:26:35;3.92;;;1.33;;
49422;SDS011;36998;51.974;20.150;2022-07-09T14:29:00;5.35;;;1.52;;
49422;SDS011;36998;51.974;20.150;2022-07-09T14:31:26;3.75;;;1.40;;
49422;SDS011;36998;51.974;20.150;2022-07-09T14:33:54;2.67;;;1.00;;
49422;SDS011;36998;51.974;20.150;2022-07-09T14:36:20;3.10;;;1.10;;